Time;durP1;ratioP1;P1;durP2;ratioP2;P2;SDS_P1;SDS_P2;PMS_P1;PMS_P2;Temp;Humidity;BMP_temperature;BMP_pressure;BME280_temperature;BME280_humidity;BME280_pressure;Samples;Min_cycle;Max_cycle;Signal;HPM_P1;HPM_P2
2023/12/11 00:00:48;;;;;;;1.33;1.10;;;12.20;99.90;;;;;;5053885;28;20489;-72
2023/12/11 00:03:14;;;;;;;6.47;3.45;;;12.20;99.90;;;;;;5052527;28;20041;-72
2023/12/11 00:05:40;;;;;;;5.57;1.35;;;12.30;99.90;;;;;;5052285;28;20029;-72
2023/12/11 00:08:06;;;;;;;2.97;1.23;;;12.40;99.90;;;;;;5052566;28;20057;-72
2023/12/11 00:10:32;;;;;;;0.47;0.22;;;12.30;99.90;;;;;;5054014;28;20054;-72
2023/12/11 00:12:58;;;;;;;5.32;2.85;;;12.40;99.90;;;;;;5053714;28;20040;-72
2023/12/11 00:15:24;;;;;;;2.45;0.17;;;12.30;99.90;;;;;;5053911;28;20032;-72
2023/12/11 00:17:50;;;;;;;13.93;2.28;;;12.30;99.90;;;;;;5053662;28;20096;-72
2023/12/11 00:20:16;;;;;;;0.25;0.25;;;12.40;99.90;;;;;;5053534;28;20055;-72
2023/12/11 00:22:41;;;;;;;0.45;0.45;;;12.30;99.90;;;;;;5053417;28;20040;-72
2023/12/11 00:25:07;;;;;;;2.28;0.65;;;12.30;99.90;;;;;;5053752;28;20028;-72
2023/12/11 00:27:33;;;;;;;1.90;0.90;;;12.30;99.90;;;;;;5053439;28;20029;-72
2023/12/11 00:29:59;;;;;;;9.38;2.13;;;12.30;99.90;;;;;;5053594;28;20459;-72
2023/12/11 00:32:25;;;;;;;3.40;0.47;;;12.20;99.90;;;;;;5053618;28;20381;-72
2023/12/11 00:34:51;;;;;;;0.00;0.00;;;12.30;99.90;;;;;;5051846;28;20025;-72
2023/12/11 00:37:17;;;;;;;23.50;5.78;;;12.20;99.90;;;;;;5053400;28;20064;-72
2023/12/11 00:39:44;;;;;;;2.28;0.95;;;12.20;99.90;;;;;;5053295;28;20049;-72
2023/12/11 00:42:10;;;;;;;4.20;1.60;;;12.10;99.90;;;;;;5052002;28;20025;-72
2023/12/11 00:44:38;;;;;;;3.83;1.58;;;12.00;99.90;;;;;;5053113;28;20025;-72
2023/12/11 00:47:04;;;;;;;23.92;3.20;;;12.10;99.90;;;;;;5053304;28;20029;-71
2023/12/11 00:49:31;;;;;;;10.40;2.65;;;12.10;99.90;;;;;;5052804;28;20423;-71
2023/12/11 00:51:57;;;;;;;6.93;0.73;;;12.10;99.90;;;;;;5053387;28;20380;-72
2023/12/11 00:54:23;;;;;;;9.30;1.80;;;12.10;99.90;;;;;;5052844;28;20029;-72
2023/12/11 00:56:49;;;;;;;21.70;2.63;;;12.20;99.90;;;;;;5053247;28;20384;-72
2023/12/11 00:59:15;;;;;;;4.47;0.80;;;12.10;99.90;;;;;;5052974;28;20077;-72
2023/12/11 01:01:41;;;;;;;22.13;3.53;;;12.10;99.90;;;;;;5052960;28;20037;-72
2023/12/11 01:04:06;;;;;;;9.15;2.67;;;12.10;99.90;;;;;;5052346;28;20044;-72
2023/12/11 01:06:32;;;;;;;4.35;0.63;;;12.20;99.90;;;;;;5052860;28;20036;-71
2023/12/11 01:08:58;;;;;;;0.60;0.28;;;12.20;99.90;;;;;;5052801;28;20461;-72
2023/12/11 01:11:24;;;;;;;4.43;3.03;;;12.20;99.90;;;;;;5051867;28;20028;-71
2023/12/11 01:13:49;;;;;;;19.13;2.15;;;12.20;99.90;;;;;;5052609;28;20115;-72
2023/12/11 01:16:15;;;;;;;14.80;2.42;;;12.10;99.90;;;;;;5052614;28;20060;-72
2023/12/11 01:18:42;;;;;;;4.05;1.05;;;12.10;99.90;;;;;;5052313;28;20044;-72
2023/12/11 01:21:08;;;;;;;5.72;1.92;;;12.10;99.90;;;;;;5052734;28;20099;-72
2023/12/11 01:23:34;;;;;;;2.15;1.50;;;12.00;99.90;;;;;;5051286;28;20124;-72
2023/12/11 01:26:00;;;;;;;24.48;3.83;;;12.00;99.90;;;;;;5051623;28;20381;-72
2023/12/11 01:28:26;;;;;;;9.20;0.63;;;12.00;99.90;;;;;;5052650;28;20025;-71
2023/12/11 01:30:52;;;;;;;6.50;1.55;;;12.10;99.90;;;;;;5052583;28;20108;-72
2023/12/11 01:33:17;;;;;;;33.50;5.07;;;12.10;99.90;;;;;;5052283;28;20040;-72
2023/12/11 01:35:43;;;;;;;7.65;1.98;;;12.10;99.90;;;;;;5051328;28;20013;-72
2023/12/11 01:38:09;;;;;;;18.42;2.88;;;12.20;99.90;;;;;;5052651;28;20040;-72
2023/12/11 01:40:35;;;;;;;11.65;2.33;;;12.10;99.90;;;;;;5052159;28;20104;-73
2023/12/11 01:43:18;;;;;;;16.02;1.38;;;12.00;99.90;;;;;;5052675;28;20044;-72
2023/12/11 01:45:53;;;;;;;7.43;2.55;;;12.00;99.90;;;;;;5052202;28;20515;-72
2023/12/11 01:48:19;;;;;;;16.25;5.65;;;11.90;99.90;;;;;;5051400;28;20033;-72
2023/12/11 01:50:46;;;;;;;33.33;4.35;;;12.00;99.90;;;;;;5052261;28;20074;-72
2023/12/11 01:53:13;;;;;;;3.30;2.88;;;12.00;99.90;;;;;;5052555;28;20087;-72
2023/12/11 01:55:39;;;;;;;9.32;5.07;;;12.10;99.90;;;;;;5052030;28;20028;-72
2023/12/11 01:58:06;;;;;;;3.10;1.55;;;12.10;99.90;;;;;;5052492;28;20029;-72
2023/12/11 02:00:32;;;;;;;7.95;1.75;;;12.00;99.90;;;;;;5052112;28;20112;-72
2023/12/11 02:02:59;;;;;;;33.75;3.97;;;12.00;99.90;;;;;;5051911;28;20072;-72
2023/12/11 02:05:26;;;;;;;8.30;2.08;;;12.00;99.90;;;;;;5053798;28;20025;-72
2023/12/11 02:07:52;;;;;;;7.55;1.35;;;12.10;99.90;;;;;;5054912;28;20465;-71
2023/12/11 02:10:19;;;;;;;32.17;3.80;;;12.00;99.90;;;;;;5056162;28;20108;-72
2023/12/11 02:12:45;;;;;;;14.23;0.93;;;12.00;99.90;;;;;;5055989;28;20025;-72
2023/12/11 02:15:10;;;;;;;1.27;0.52;;;12.10;99.90;;;;;;5056122;28;20397;-72
2023/12/11 02:17:40;;;;;;;2.47;0.77;;;12.10;99.90;;;;;;5055935;28;20033;-72
2023/12/11 02:20:07;;;;;;;11.30;2.05;;;12.10;99.90;;;;;;5056186;28;20035;-72
2023/12/11 02:22:32;;;;;;;29.27;2.67;;;12.10;99.90;;;;;;5055919;28;20065;-72
2023/12/11 02:25:02;;;;;;;14.88;2.63;;;12.10;99.90;;;;;;5055492;28;20072;-72
2023/12/11 02:27:29;;;;;;;1.52;0.55;;;11.90;99.90;;;;;;5055963;28;20063;-72
2023/12/11 02:29:56;;;;;;;5.35;1.13;;;11.90;99.90;;;;;;5055411;28;20033;-72
2023/12/11 02:32:22;;;;;;;2.08;0.57;;;12.00;99.90;;;;;;5055989;28;20009;-73
2023/12/11 02:34:49;;;;;;;0.00;0.00;;;12.00;99.90;;;;;;5055794;28;20045;-73
2023/12/11 02:37:16;;;;;;;25.60;2.33;;;12.10;99.90;;;;;;5055433;28;20024;-73
2023/12/11 02:39:43;;;;;;;23.02;3.58;;;12.00;99.90;;;;;;5055585;28;20568;-72
2023/12/11 02:42:09;;;;;;;11.88;3.70;;;12.10;99.90;;;;;;5055515;28;20063;-72
2023/12/11 02:44:35;;;;;;;24.77;2.90;;;12.10;99.90;;;;;;5055318;28;20021;-72
2023/12/11 02:47:01;;;;;;;10.00;2.38;;;12.20;99.90;;;;;;5055346;28;20366;-72
2023/12/11 02:49:27;;;;;;;10.05;2.10;;;12.20;99.90;;;;;;5055469;28;20039;-72
2023/12/11 02:51:52;;;;;;;1.83;0.77;;;12.20;99.90;;;;;;5055406;28;20097;-73
2023/12/11 02:54:18;;;;;;;10.30;2.95;;;12.20;99.90;;;;;;5055337;28;20067;-72
2023/12/11 02:56:47;;;;;;;9.48;2.85;;;12.20;99.90;;;;;;5053835;28;20036;-72
2023/12/11 02:59:16;;;;;;;26.70;4.45;;;12.10;99.90;;;;;;5053618;28;20025;-72
2023/12/11 03:01:42;;;;;;;18.45;1.35;;;12.20;99.90;;;;;;5053240;28;20040;-72
2023/12/11 03:04:08;;;;;;;25.80;0.80;;;12.20;99.90;;;;;;5054990;28;20037;-72
2023/12/11 03:06:34;;;;;;;37.83;3.28;;;12.20;99.90;;;;;;5061127;28;20373;-72
2023/12/11 03:09:02;;;;;;;4.75;1.13;;;12.20;99.90;;;;;;5073749;28;20035;-72
2023/12/11 03:11:28;;;;;;;15.57;2.35;;;12.20;99.90;;;;;;5062814;28;20016;-72
2023/12/11 03:13:57;;;;;;;15.55;2.97;;;12.20;99.90;;;;;;5073654;28;20119;-72
2023/12/11 03:16:26;;;;;;;33.92;4.13;;;12.20;99.90;;;;;;5072733;28;20457;-72
2023/12/11 03:18:52;;;;;;;19.73;3.00;;;12.20;99.90;;;;;;5062536;28;20116;-72
2023/12/11 03:21:18;;;;;;;9.95;2.45;;;12.20;99.90;;;;;;5073317;28;20044;-72
2023/12/11 03:23:44;;;;;;;9.75;2.47;;;12.20;99.90;;;;;;5074914;28;20063;-72
2023/12/11 03:26:10;;;;;;;12.68;2.40;;;12.20;99.90;;;;;;5074523;28;20066;-72
2023/12/11 03:28:35;;;;;;;8.93;0.73;;;12.20;99.90;;;;;;5074616;28;20104;-72
2023/12/11 03:31:01;;;;;;;0.10;0.10;;;12.30;99.90;;;;;;5074706;28;20095;-72
2023/12/11 03:33:27;;;;;;;19.00;4.30;;;12.30;99.90;;;;;;5074632;28;20409;-72
2023/12/11 03:35:53;;;;;;;11.20;3.00;;;12.30;99.90;;;;;;5062809;28;20021;-72
2023/12/11 03:38:19;;;;;;;12.93;3.92;;;12.30;99.90;;;;;;5070945;28;20461;-72
2023/12/11 03:40:46;;;;;;;15.95;3.42;;;12.30;99.90;;;;;;5064570;28;20018;-72
2023/12/11 03:43:15;;;;;;;14.27;2.45;;;12.30;99.90;;;;;;5069449;28;20079;-71
2023/12/11 03:45:41;;;;;;;15.70;2.42;;;12.30;99.90;;;;;;5074535;28;20055;-72
2023/12/11 03:48:07;;;;;;;3.13;0.63;;;12.30;99.90;;;;;;5074034;28;20060;-72
2023/12/11 03:50:33;;;;;;;12.50;2.85;;;12.30;99.90;;;;;;5073262;28;20054;-72
2023/12/11 03:52:59;;;;;;;6.38;2.05;;;12.20;99.90;;;;;;5074080;28;20103;-72
2023/12/11 03:55:25;;;;;;;5.03;0.98;;;12.30;99.90;;;;;;5074322;28;20021;-72
2023/12/11 03:57:51;;;;;;;4.60;1.67;;;12.30;99.90;;;;;;5063162;28;20381;-72
2023/12/11 04:00:18;;;;;;;8.38;1.92;;;12.30;99.90;;;;;;5069632;28;20105;-72
2023/12/11 04:02:43;;;;;;;0.00;0.00;;;12.40;99.90;;;;;;5073999;28;20481;-72
2023/12/11 04:05:09;;;;;;;5.65;2.25;;;12.40;99.90;;;;;;5073904;28;20035;-72
2023/12/11 04:07:35;;;;;;;4.57;1.20;;;12.40;99.90;;;;;;5073873;28;20024;-72
2023/12/11 04:10:03;;;;;;;0.75;0.38;;;12.40;99.90;;;;;;5062046;28;20059;-72
2023/12/11 04:12:28;;;;;;;8.40;2.78;;;12.30;99.90;;;;;;5071581;28;20021;-72
2023/12/11 04:14:54;;;;;;;18.20;4.28;;;12.30;99.90;;;;;;5072698;28;20115;-72
2023/12/11 04:17:20;;;;;;;7.88;3.08;;;12.30;99.90;;;;;;5073509;28;20449;-71
2023/12/11 04:19:46;;;;;;;1.38;1.10;;;12.30;99.90;;;;;;5073642;28;20020;-71
2023/12/11 04:22:12;;;;;;;10.02;2.00;;;12.30;99.90;;;;;;5073288;28;20437;-71
2023/12/11 04:24:37;;;;;;;19.08;5.15;;;12.30;99.90;;;;;;5072371;28;20039;-72
2023/12/11 04:27:06;;;;;;;9.10;2.20;;;12.30;99.90;;;;;;5071980;28;20174;-71
2023/12/11 04:29:32;;;;;;;9.85;2.22;;;12.30;99.90;;;;;;5072948;28;20032;-71
2023/12/11 04:31:58;;;;;;;11.18;2.47;;;12.30;99.90;;;;;;5073682;28;20025;-71
2023/12/11 04:34:24;;;;;;;10.93;2.17;;;12.10;99.90;;;;;;5073127;28;20089;-72
2023/12/11 04:36:50;;;;;;;4.50;2.67;;;12.20;99.90;;;;;;5073238;28;20028;-72
2023/12/11 04:39:16;;;;;;;12.52;1.92;;;12.10;99.90;;;;;;5073023;28;20031;-72
2023/12/11 04:41:42;;;;;;;11.77;1.45;;;12.10;99.90;;;;;;5071629;28;20017;-72
2023/12/11 04:44:09;;;;;;;11.85;1.48;;;12.00;99.90;;;;;;5073017;28;20047;-72
2023/12/11 04:46:35;;;;;;;0.40;0.40;;;12.00;99.90;;;;;;5073095;28;20021;-72
2023/12/11 04:49:00;;;;;;;6.18;1.58;;;12.00;99.90;;;;;;5072864;28;20028;-72
2023/12/11 04:51:26;;;;;;;3.65;1.25;;;12.00;99.90;;;;;;5073047;28;20127;-72
2023/12/11 04:53:52;;;;;;;10.10;0.57;;;11.90;99.90;;;;;;5071287;28;20086;-72
2023/12/11 04:56:18;;;;;;;9.05;0.63;;;11.90;99.90;;;;;;5072592;28;20107;-72
2023/12/11 04:58:44;;;;;;;11.77;0.38;;;12.10;99.90;;;;;;5071543;28;20456;-72
2023/12/11 05:01:10;;;;;;;14.57;2.88;;;12.00;99.90;;;;;;5073001;28;20055;-72
2023/12/11 05:03:36;;;;;;;1.25;0.80;;;11.90;99.90;;;;;;5072336;28;20132;-72
2023/12/11 05:06:02;;;;;;;9.93;2.03;;;12.00;99.90;;;;;;5072791;28;20064;-72
2023/12/11 05:08:28;;;;;;;11.25;2.75;;;12.00;99.90;;;;;;5072632;28;20032;-72
2023/12/11 05:10:53;;;;;;;5.68;1.70;;;12.00;99.90;;;;;;5058443;28;20024;-72
2023/12/11 05:13:19;;;;;;;19.55;3.28;;;12.00;99.90;;;;;;5072575;28;20031;-72
2023/12/11 05:15:46;;;;;;;13.52;2.92;;;12.00;99.90;;;;;;5072512;28;20381;-72
2023/12/11 05:18:12;;;;;;;15.80;1.73;;;12.10;99.90;;;;;;5071118;28;20032;-72
2023/12/11 05:20:37;;;;;;;6.82;1.38;;;12.10;99.90;;;;;;5071178;28;20024;-72
2023/12/11 05:23:03;;;;;;;13.82;2.78;;;12.20;99.90;;;;;;5072651;28;20091;-72
2023/12/11 05:25:29;;;;;;;9.35;2.15;;;12.20;99.90;;;;;;5070774;28;20385;-72
2023/12/11 05:27:55;;;;;;;15.02;3.92;;;12.30;99.90;;;;;;5071294;28;20028;-72
2023/12/11 05:30:21;;;;;;;23.60;2.78;;;12.20;99.90;;;;;;5060732;28;20017;-72
2023/12/11 05:32:47;;;;;;;14.23;6.57;;;12.30;99.90;;;;;;5026352;28;20056;-72
2023/12/11 05:35:14;;;;;;;6.53;2.60;;;12.30;99.90;;;;;;5043889;28;20027;-72
2023/12/11 05:37:40;;;;;;;15.80;1.88;;;12.40;99.90;;;;;;5052390;28;20029;-72
2023/12/11 05:40:07;;;;;;;9.60;2.20;;;12.40;99.90;;;;;;5051273;28;20355;-72
2023/12/11 05:42:33;;;;;;;9.60;1.98;;;12.40;99.90;;;;;;5052428;28;20029;-72
2023/12/11 05:44:59;;;;;;;6.40;1.50;;;12.40;99.90;;;;;;5052213;28;20454;-72
2023/12/11 05:47:25;;;;;;;6.25;2.30;;;12.30;99.90;;;;;;5052286;28;20025;-72
2023/12/11 05:49:50;;;;;;;7.00;1.85;;;12.40;99.90;;;;;;5052428;28;20672;-72
2023/12/11 05:52:16;;;;;;;5.75;2.47;;;12.40;99.90;;;;;;5052369;28;20021;-72
2023/12/11 05:54:42;;;;;;;13.45;2.63;;;12.40;99.90;;;;;;5051859;28;20063;-72
2023/12/11 05:57:08;;;;;;;14.48;1.15;;;12.40;99.90;;;;;;5052273;28;20108;-72
2023/12/11 05:59:34;;;;;;;7.25;2.05;;;12.40;99.90;;;;;;5050836;28;20083;-72
2023/12/11 06:01:59;;;;;;;35.20;3.30;;;12.40;99.90;;;;;;5059469;28;20455;-72
2023/12/11 06:04:25;;;;;;;13.77;2.83;;;12.40;99.90;;;;;;5050320;28;20048;-72
2023/12/11 06:06:51;;;;;;;5.60;1.73;;;12.40;99.90;;;;;;5051989;28;20021;-72
2023/12/11 06:09:17;;;;;;;7.28;1.58;;;12.30;99.90;;;;;;5050894;28;20044;-72
2023/12/11 06:11:43;;;;;;;9.93;3.60;;;12.40;99.90;;;;;;5063909;28;20025;-72
2023/12/11 06:14:09;;;;;;;14.45;4.55;;;12.40;99.90;;;;;;5070693;28;20055;-72
2023/12/11 06:16:34;;;;;;;8.15;2.00;;;12.40;99.90;;;;;;5072237;28;20029;-72
2023/12/11 06:19:00;;;;;;;1.45;1.08;;;12.40;99.90;;;;;;5072077;28;20021;-72
2023/12/11 06:21:26;;;;;;;8.77;1.65;;;12.40;99.90;;;;;;5072271;28;20044;-72
2023/12/11 06:23:53;;;;;;;4.55;0.90;;;12.30;99.90;;;;;;5070556;28;20060;-72
2023/12/11 06:26:29;;;;;;;7.55;1.73;;;12.30;99.90;;;;;;5070773;28;20024;-72
2023/12/11 06:28:57;;;;;;;11.57;2.08;;;12.30;99.90;;;;;;5072123;28;20111;-72
2023/12/11 06:31:25;;;;;;;6.75;1.80;;;12.30;99.90;;;;;;5071766;28;20028;-72
2023/12/11 06:33:51;;;;;;;12.32;2.17;;;12.30;99.90;;;;;;5072138;28;20570;-72
2023/12/11 06:36:16;;;;;;;2.78;0.77;;;12.40;99.90;;;;;;5071848;28;20066;-72
2023/12/11 06:38:43;;;;;;;8.00;1.92;;;12.40;99.90;;;;;;5070581;28;20031;-72
2023/12/11 06:41:08;;;;;;;6.03;1.08;;;12.40;99.90;;;;;;5071638;28;20021;-72
2023/12/11 06:43:35;;;;;;;13.05;0.75;;;12.30;99.90;;;;;;5071487;28;20435;-72
2023/12/11 06:46:02;;;;;;;7.45;1.83;;;12.30;99.90;;;;;;5071895;28;20024;-72
2023/12/11 06:48:29;;;;;;;11.65;1.88;;;12.30;99.90;;;;;;5071766;28;20036;-72
2023/12/11 06:50:55;;;;;;;5.70;1.50;;;12.30;99.90;;;;;;5072282;28;20021;-72
2023/12/11 06:53:21;;;;;;;20.17;3.95;;;12.30;99.90;;;;;;5075260;28;20028;-72
2023/12/11 06:55:47;;;;;;;8.20;2.05;;;12.20;99.90;;;;;;5075446;28;20366;-72
2023/12/11 06:58:12;;;;;;;3.17;1.25;;;12.30;99.90;;;;;;5075172;28;20024;-72
2023/12/11 07:00:38;;;;;;;3.58;1.20;;;12.30;99.90;;;;;;5075055;28;20024;-72
2023/12/11 07:03:05;;;;;;;5.95;0.82;;;12.30;99.90;;;;;;5075202;28;20043;-72
2023/12/11 07:05:32;;;;;;;11.90;2.70;;;12.30;99.90;;;;;;5074929;28;20033;-72
2023/12/11 07:07:58;;;;;;;10.02;1.08;;;12.30;99.90;;;;;;5075042;28;20028;-72
2023/12/11 07:10:24;;;;;;;1.27;0.63;;;12.20;99.90;;;;;;5060898;28;20041;-72
2023/12/11 07:12:50;;;;;;;27.90;3.28;;;12.20;99.90;;;;;;5075126;28;20078;-72
2023/12/11 07:15:16;;;;;;;11.20;1.55;;;12.20;99.90;;;;;;5075003;28;20368;-72
2023/12/11 07:17:42;;;;;;;6.15;0.63;;;12.30;99.90;;;;;;5059212;28;20486;-72
2023/12/11 07:20:10;;;;;;;5.30;2.08;;;12.20;99.90;;;;;;5056226;28;20033;-72
2023/12/11 07:22:35;;;;;;;19.27;2.13;;;12.20;99.90;;;;;;5062819;28;20291;-72
2023/12/11 07:25:01;;;;;;;6.65;2.20;;;12.20;99.90;;;;;;5065707;28;20021;-72
2023/12/11 07:27:27;;;;;;;2.55;0.93;;;12.20;99.90;;;;;;5068246;28;20059;-72
2023/12/11 07:29:53;;;;;;;9.35;2.70;;;12.20;99.90;;;;;;5063820;28;20450;-72
2023/12/11 07:32:18;;;;;;;28.05;8.23;;;12.10;99.90;;;;;;5064760;28;20020;-72
2023/12/11 07:34:44;;;;;;;7.40;1.90;;;12.20;99.90;;;;;;5055891;28;20428;-72
2023/12/11 07:37:10;;;;;;;15.27;1.92;;;12.20;99.90;;;;;;5065354;28;20051;-72
2023/12/11 07:39:36;;;;;;;29.80;3.17;;;12.20;99.90;;;;;;5066398;28;20020;-74
2023/12/11 07:42:02;;;;;;;19.38;1.92;;;12.20;99.90;;;;;;5054101;28;20029;-72
2023/12/11 07:44:28;;;;;;;3.78;1.02;;;12.10;99.90;;;;;;5064641;28;20112;-71
2023/12/11 07:46:54;;;;;;;11.65;2.53;;;12.20;99.90;;;;;;5058915;28;20123;-71
2023/12/11 07:49:19;;;;;;;12.18;1.98;;;12.20;99.90;;;;;;5062829;28;20024;-71
2023/12/11 07:51:46;;;;;;;14.88;2.78;;;12.10;99.90;;;;;;5063920;28;20021;-71
2023/12/11 07:54:13;;;;;;;7.03;1.65;;;12.10;99.90;;;;;;5064767;28;20037;-71
2023/12/11 07:56:40;;;;;;;1.92;0.98;;;12.10;99.90;;;;;;5056581;28;20021;-71
2023/12/11 07:59:06;;;;;;;5.90;1.92;;;12.10;99.90;;;;;;5062659;28;20114;-71
2023/12/11 08:01:32;;;;;;;7.43;1.33;;;12.10;99.90;;;;;;5060293;28;20035;-71
2023/12/11 08:03:59;;;;;;;0.45;0.35;;;12.10;99.90;;;;;;5052233;28;20049;-70
2023/12/11 08:06:25;;;;;;;5.38;2.10;;;12.00;99.90;;;;;;5066051;28;20481;-71
2023/12/11 08:08:51;;;;;;;3.03;0.80;;;12.00;99.90;;;;;;5062161;28;20036;-71
2023/12/11 08:11:24;;;;;;;14.05;1.55;;;12.10;99.90;;;;;;5061909;28;20021;-71
2023/12/11 08:13:50;;;;;;;8.20;2.10;;;12.00;99.90;;;;;;5058069;28;20106;-72
2023/12/11 08:16:17;;;;;;;3.20;1.33;;;12.00;99.90;;;;;;5061984;28;20389;-71
2023/12/11 08:18:44;;;;;;;3.17;0.55;;;12.00;99.90;;;;;;5066201;28;20501;-71
2023/12/11 08:21:11;;;;;;;14.98;2.75;;;12.00;99.90;;;;;;5058258;28;20024;-72
2023/12/11 08:23:40;;;;;;;10.95;2.08;;;12.10;99.90;;;;;;5066139;28;20032;-72
2023/12/11 08:26:07;;;;;;;18.10;2.55;;;12.00;99.90;;;;;;5066475;28;20035;-71
2023/12/11 08:28:33;;;;;;;14.75;2.60;;;12.00;99.90;;;;;;5056184;28;20064;-72
2023/12/11 08:30:59;;;;;;;8.70;0.57;;;12.10;99.90;;;;;;5055079;28;20021;-71
2023/12/11 08:33:25;;;;;;;3.53;1.42;;;12.00;99.90;;;;;;5068462;28;20020;-71
2023/12/11 08:35:51;;;;;;;2.22;0.73;;;12.00;99.90;;;;;;5062083;28;20028;-73
2023/12/11 08:38:17;;;;;;;4.43;1.52;;;12.10;99.90;;;;;;5053740;28;20029;-74
2023/12/11 08:40:44;;;;;;;2.17;0.63;;;12.10;99.90;;;;;;5053024;28;20021;-73
2023/12/11 08:43:12;;;;;;;6.97;1.98;;;12.10;99.90;;;;;;5054768;28;20056;-73
2023/12/11 08:45:38;;;;;;;2.13;1.45;;;12.10;99.90;;;;;;5060940;28;20488;-73
2023/12/11 08:48:04;;;;;;;0.28;0.15;;;12.10;99.90;;;;;;5061043;28;20389;-72
2023/12/11 08:50:30;;;;;;;10.25;1.05;;;12.10;99.90;;;;;;5061193;28;20423;-72
2023/12/11 08:52:56;;;;;;;5.40;2.13;;;12.10;99.90;;;;;;5057797;28;20112;-73
2023/12/11 08:55:22;;;;;;;4.63;0.75;;;12.10;99.90;;;;;;5067595;28;20537;-72
2023/12/11 08:57:48;;;;;;;2.00;0.77;;;12.00;99.90;;;;;;5053501;28;20036;-72
2023/12/11 09:00:14;;;;;;;5.28;0.80;;;12.10;99.90;;;;;;5055780;28;20021;-72
2023/12/11 09:02:40;;;;;;;3.78;1.40;;;12.10;99.90;;;;;;5051144;28;20439;-72
2023/12/11 09:05:06;;;;;;;4.38;1.17;;;12.00;99.90;;;;;;5055319;28;20082;-73
2023/12/11 09:07:32;;;;;;;1.17;0.65;;;12.00;99.90;;;;;;5057135;28;20037;-73
2023/12/11 09:09:58;;;;;;;3.17;0.57;;;12.10;99.90;;;;;;5060729;28;20028;-72
2023/12/11 09:12:24;;;;;;;1.77;1.58;;;12.00;99.90;;;;;;5063003;28;20107;-72
2023/12/11 09:14:50;;;;;;;2.47;1.05;;;11.80;99.90;;;;;;5058189;28;20032;-73
2023/12/11 09:17:15;;;;;;;0.85;0.10;;;11.80;99.90;;;;;;5057163;28;20482;-72
2023/12/11 09:19:41;;;;;;;2.50;0.52;;;11.90;99.90;;;;;;5059030;28;20056;-72
2023/12/11 09:22:07;;;;;;;6.70;3.05;;;11.90;99.90;;;;;;5069046;28;20028;-72
2023/12/11 09:24:33;;;;;;;14.77;2.13;;;11.80;99.90;;;;;;5059657;28;20037;-72
2023/12/11 09:26:59;;;;;;;0.57;0.40;;;11.80;99.90;;;;;;5059370;28;20104;-72
2023/12/11 09:29:25;;;;;;;12.77;0.85;;;11.90;99.90;;;;;;5054197;28;20393;-72
2023/12/11 09:31:51;;;;;;;5.90;1.13;;;11.90;99.90;;;;;;5060170;28;20029;-72
2023/12/11 09:34:17;;;;;;;0.30;0.30;;;11.90;99.90;;;;;;5048647;28;20074;-73
2023/12/11 09:36:43;;;;;;;1.77;1.42;;;11.90;99.90;;;;;;5059616;28;20052;-72
2023/12/11 09:39:09;;;;;;;0.00;0.00;;;11.90;99.90;;;;;;5059730;28;20053;-72
2023/12/11 09:41:35;;;;;;;0.85;0.63;;;11.90;99.90;;;;;;5051378;28;20021;-73
2023/12/11 09:44:01;;;;;;;1.35;0.60;;;11.80;99.90;;;;;;5061456;28;20032;-73
2023/12/11 09:46:31;;;;;;;2.38;0.73;;;11.80;99.90;;;;;;5056914;28;20028;-73
2023/12/11 09:48:57;;;;;;;1.48;0.88;;;11.70;99.90;;;;;;5059885;28;20358;-73
2023/12/11 09:51:23;;;;;;;0.00;0.00;;;11.60;99.90;;;;;;5053772;28;20140;-73
2023/12/11 09:53:52;;;;;;;0.30;0.30;;;11.70;99.90;;;;;;5062654;28;20021;-73
2023/12/11 09:56:18;;;;;;;0.52;0.32;;;11.70;99.90;;;;;;5061611;28;20116;-73
2023/12/11 09:58:45;;;;;;;0.00;0.00;;;11.70;99.90;;;;;;5059370;28;20032;-73
2023/12/11 10:01:13;;;;;;;0.00;0.00;;;11.70;99.90;;;;;;5055630;28;20408;-73
2023/12/11 10:03:39;;;;;;;0.00;0.00;;;11.70;99.90;;;;;;5053308;28;20041;-73
2023/12/11 10:06:05;;;;;;;0.17;0.10;;;11.70;99.90;;;;;;5060459;28;20431;-73
2023/12/11 10:08:43;;;;;;;0.70;0.45;;;11.70;99.90;;;;;;5061994;28;20060;-73
2023/12/11 10:11:16;;;;;;;0.00;0.00;;;11.70;99.90;;;;;;5065230;28;20029;-73
2023/12/11 10:13:42;;;;;;;0.00;0.00;;;11.70;99.90;;;;;;5071420;28;20603;-73
2023/12/11 10:16:33;;;;;;;2.95;0.50;;;11.80;99.90;;;;;;5060632;28;20149;-73
2023/12/11 10:19:02;;;;;;;0.15;0.15;;;11.50;99.90;;;;;;5056132;28;20123;-73
2023/12/11 10:21:55;;;;;;;0.03;0.03;;;11.50;99.90;;;;;;5065700;28;20380;-73
2023/12/11 10:24:22;;;;;;;0.00;0.00;;;11.50;99.90;;;;;;5055075;28;20516;-73
2023/12/11 10:26:55;;;;;;;0.00;0.00;;;11.40;99.90;;;;;;5055246;28;20560;-73
2023/12/11 10:29:30;;;;;;;0.65;0.20;;;11.40;99.90;;;;;;5053135;28;20044;-73
2023/12/11 10:32:01;;;;;;;3.13;0.65;;;11.30;99.90;;;;;;5066157;28;20028;-73
2023/12/11 10:34:50;;;;;;;0.13;0.13;;;11.40;99.90;;;;;;5057373;28;20029;-73
2023/12/11 10:37:19;;;;;;;0.15;0.13;;;11.50;99.90;;;;;;5053931;28;20480;-73
2023/12/11 10:39:55;;;;;;;0.00;0.00;;;11.40;99.90;;;;;;5059229;28;20029;-73
2023/12/11 10:42:21;;;;;;;2.28;0.63;;;11.50;99.90;;;;;;5057558;28;20457;-73
2023/12/11 10:44:48;;;;;;;0.98;0.43;;;11.50;99.90;;;;;;5066607;28;20497;-73
2023/12/11 10:47:15;;;;;;;3.03;1.17;;;11.60;99.90;;;;;;5061512;28;20417;-73
2023/12/11 10:49:41;;;;;;;1.55;0.80;;;11.50;99.90;;;;;;5059673;28;20385;-73
2023/12/11 10:52:07;;;;;;;11.50;1.75;;;11.50;99.90;;;;;;5057738;28;20059;-73
2023/12/11 10:54:35;;;;;;;5.07;1.55;;;11.50;99.90;;;;;;5068209;28;20054;-74
2023/12/11 10:57:01;;;;;;;2.00;0.55;;;11.60;99.90;;;;;;5064036;28;20040;-74
2023/12/11 10:59:33;;;;;;;0.75;0.30;;;11.70;99.90;;;;;;5062691;28;20028;-74
2023/12/11 11:02:00;;;;;;;;;;;11.60;99.90;;;;;;5057176;28;20215;-74
2023/12/11 11:04:30;;;;;;;0.95;0.52;;;11.50;99.90;;;;;;5053542;28;20277;-74
2023/12/11 11:07:14;;;;;;;1.15;0.52;;;11.50;99.90;;;;;;5067932;28;20025;-74
2023/12/11 11:09:59;;;;;;;3.20;0.73;;;11.40;99.90;;;;;;5064734;28;20036;-73
2023/12/11 11:12:41;;;;;;;0.00;0.00;;;11.40;99.90;;;;;;5057788;28;20405;-73
2023/12/11 11:15:09;;;;;;;1.70;1.40;;;11.40;99.90;;;;;;5062422;28;20082;-73
2023/12/11 11:18:00;;;;;;;5.15;1.98;;;11.30;99.90;;;;;;5057019;28;20363;-74
2023/12/11 11:20:27;;;;;;;0.00;0.00;;;11.30;99.90;;;;;;5067004;28;20480;-74
2023/12/11 11:23:13;;;;;;;0.00;0.00;;;11.40;99.90;;;;;;5062349;28;20077;-73
2023/12/11 11:25:40;;;;;;;0.00;0.00;;;11.30;99.90;;;;;;5054080;28;20075;-73
2023/12/11 11:28:06;;;;;;;6.82;0.80;;;11.40;99.90;;;;;;5046759;28;20052;-75
2023/12/11 11:30:44;;;;;;;0.22;0.22;;;11.50;99.90;;;;;;5054216;28;20026;-77
2023/12/11 11:33:10;;;;;;;0.13;0.13;;;11.60;99.90;;;;;;5045843;28;20080;-77
2023/12/11 11:35:45;;;;;;;0.10;0.10;;;11.60;99.90;;;;;;5053966;28;20021;-76
2023/12/11 11:38:15;;;;;;;0.47;0.47;;;11.80;99.90;;;;;;5047387;28;20123;-77
2023/12/11 11:40:47;;;;;;;0.00;0.00;;;11.80;99.90;;;;;;5054527;28;20369;-76
2023/12/11 11:43:15;;;;;;;0.08;0.08;;;11.80;99.90;;;;;;5054043;28;20037;-77
2023/12/11 11:45:41;;;;;;;0.00;0.00;;;11.90;99.90;;;;;;5053267;28;20104;-76
2023/12/11 11:48:06;;;;;;;0.00;0.00;;;11.90;99.90;;;;;;5049469;28;20862;-77
2023/12/11 11:50:32;;;;;;;1.08;0.63;;;11.90;99.90;;;;;;5054374;28;20033;-77
2023/12/11 11:53:11;;;;;;;0.00;0.00;;;12.10;99.90;;;;;;5053829;28;20076;-76
2023/12/11 11:55:41;;;;;;;2.60;0.75;;;12.10;99.90;;;;;;5049159;28;20048;-76
2023/12/11 11:58:14;;;;;;;7.13;0.75;;;11.90;99.90;;;;;;5054099;28;20029;-76
2023/12/11 12:00:41;;;;;;;0.00;0.00;;;11.80;99.90;;;;;;5057799;28;20028;-76
2023/12/11 12:03:08;;;;;;;1.17;0.52;;;12.00;99.90;;;;;;5058239;28;20040;-76
2023/12/11 12:05:36;;;;;;;0.00;0.00;;;11.90;99.90;;;;;;5053728;28;20055;-75
2023/12/11 12:08:09;;;;;;;1.45;0.82;;;12.00;99.90;;;;;;5052442;28;20052;-76
2023/12/11 12:10:35;;;;;;;0.00;0.00;;;11.80;99.90;;;;;;5056104;28;20024;-75
2023/12/11 12:13:02;;;;;;;0.00;0.00;;;11.90;99.90;;;;;;5073684;28;20439;-75
2023/12/11 12:15:31;;;;;;;0.93;0.40;;;11.90;99.90;;;;;;5074077;28;20024;-75
2023/12/11 12:18:07;;;;;;;0.00;0.00;;;12.00;99.90;;;;;;5073523;28;20033;-75
2023/12/11 12:20:33;;;;;;;1.35;0.75;;;12.00;99.90;;;;;;5073612;28;20683;-76
2023/12/11 12:22:59;;;;;;;0.00;0.00;;;12.10;99.90;;;;;;5073529;28;20044;-75
2023/12/11 12:25:26;;;;;;;0.00;0.00;;;12.20;99.90;;;;;;5073330;28;20111;-76
2023/12/11 12:27:55;;;;;;;6.70;0.68;;;12.20;99.90;;;;;;5071897;28;20349;-75
2023/12/11 12:30:21;;;;;;;0.00;0.00;;;12.20;99.90;;;;;;5073451;28;20040;-75
2023/12/11 12:32:52;;;;;;;0.20;0.20;;;12.10;99.90;;;;;;5073477;28;20059;-76
2023/12/11 12:35:19;;;;;;;0.10;0.10;;;12.00;99.90;;;;;;5073686;28;20028;-75
2023/12/11 12:37:47;;;;;;;0.30;0.28;;;12.00;99.90;;;;;;5071867;28;20466;-75
2023/12/11 12:40:13;;;;;;;0.00;0.00;;;11.90;99.90;;;;;;5073372;28;20024;-75
2023/12/11 12:42:40;;;;;;;4.18;0.95;;;12.00;99.90;;;;;;5073549;28;20051;-75